sensor_id;sensor_type;location;lat;lon;timestamp;P1;durP1;ratioP1;P2;durP2;ratioP2
69847;SDS011;57143;55.940;37.496;2023-01-28T00:01:26;5.77;;;1.07;;
69847;SDS011;57143;55.940;37.496;2023-01-28T00:03:53;5.18;;;1.40;;
69847;SDS011;57143;55.940;37.496;2023-01-28T00:06:20;6.05;;;1.10;;
69847;SDS011;57143;55.940;37.496;2023-01-28T00:08:48;4.18;;;1.10;;
69847;SDS011;57143;55.940;37.496;2023-01-28T00:11:15;4.32;;;0.70;;
69847;SDS011;57143;55.940;37.496;2023-01-28T00:13:42;4.57;;;0.90;;
69847;SDS011;57143;55.940;37.496;2023-01-28T00:16:10;3.10;;;0.60;;
69847;SDS011;57143;55.940;37.496;2023-01-28T00:18:37;4.18;;;0.70;;
69847;SDS011;57143;55.940;37.496;2023-01-28T00:21:05;3.67;;;0.80;;
69847;SDS011;57143;55.940;37.496;2023-01-28T00:23:34;5.18;;;1.33;;
69847;SDS011;57143;55.940;37.496;2023-01-28T00:26:03;3.77;;;0.83;;
69847;SDS011;57143;55.940;37.496;2023-01-28T00:28:31;4.47;;;0.88;;
69847;SDS011;57143;55.940;37.496;2023-01-28T00:31:04;4.45;;;0.82;;
69847;SDS011;57143;55.940;37.496;2023-01-28T00:33:35;3.97;;;0.80;;
69847;SDS011;57143;55.940;37.496;2023-01-28T00:36:03;5.30;;;1.08;;
69847;SDS011;57143;55.940;37.496;2023-01-28T00:38:32;4.60;;;0.60;;
69847;SDS011;57143;55.940;37.496;2023-01-28T00:41:05;4.20;;;0.80;;
69847;SDS011;57143;55.940;37.496;2023-01-28T00:43:34;3.75;;;0.63;;
69847;SDS011;57143;55.940;37.496;2023-01-28T00:46:01;5.70;;;1.10;;
69847;SDS011;57143;55.940;37.496;2023-01-28T00:48:28;4.03;;;0.77;;
69847;SDS011;57143;55.940;37.496;2023-01-28T00:50:57;6.33;;;1.20;;
69847;SDS011;57143;55.940;37.496;2023-01-28T00:53:25;3.33;;;0.75;;
69847;SDS011;57143;55.940;37.496;2023-01-28T00:55:52;4.35;;;1.10;;
69847;SDS011;57143;55.940;37.496;2023-01-28T00:58:19;3.53;;;0.68;;
69847;SDS011;57143;55.940;37.496;2023-01-28T01:00:48;4.78;;;0.95;;
69847;SDS011;57143;55.940;37.496;2023-01-28T01:03:15;4.40;;;1.10;;
69847;SDS011;57143;55.940;37.496;2023-01-28T01:05:43;5.30;;;1.10;;
69847;SDS011;57143;55.940;37.496;2023-01-28T01:08:12;4.32;;;1.10;;
69847;SDS011;57143;55.940;37.496;2023-01-28T01:10:39;8.13;;;1.60;;
69847;SDS011;57143;55.940;37.496;2023-01-28T01:13:06;5.40;;;1.20;;
69847;SDS011;57143;55.940;37.496;2023-01-28T01:15:34;4.87;;;1.10;;
69847;SDS011;57143;55.940;37.496;2023-01-28T01:18:01;2.90;;;0.55;;
69847;SDS011;57143;55.940;37.496;2023-01-28T01:20:28;5.85;;;1.45;;
69847;SDS011;57143;55.940;37.496;2023-01-28T01:22:57;4.57;;;0.88;;
69847;SDS011;57143;55.940;37.496;2023-01-28T01:25:26;3.72;;;0.80;;
69847;SDS011;57143;55.940;37.496;2023-01-28T01:27:53;5.20;;;1.30;;
69847;SDS011;57143;55.940;37.496;2023-01-28T01:30:20;5.88;;;1.42;;
69847;SDS011;57143;55.940;37.496;2023-01-28T01:32:48;5.55;;;1.60;;
69847;SDS011;57143;55.940;37.496;2023-01-28T01:35:15;5.00;;;1.27;;
69847;SDS011;57143;55.940;37.496;2023-01-28T01:37:42;7.15;;;1.58;;
69847;SDS011;57143;55.940;37.496;2023-01-28T01:40:10;6.93;;;1.60;;
69847;SDS011;57143;55.940;37.496;2023-01-28T01:42:39;5.47;;;1.60;;
69847;SDS011;57143;55.940;37.496;2023-01-28T01:45:06;5.22;;;1.13;;
69847;SDS011;57143;55.940;37.496;2023-01-28T01:47:39;5.50;;;1.50;;
69847;SDS011;57143;55.940;37.496;2023-01-28T01:50:11;6.72;;;1.65;;
69847;SDS011;57143;55.940;37.496;2023-01-28T01:52:44;4.03;;;0.90;;
69847;SDS011;57143;55.940;37.496;2023-01-28T01:55:15;5.43;;;1.33;;
69847;SDS011;57143;55.940;37.496;2023-01-28T01:57:46;7.10;;;1.95;;
69847;SDS011;57143;55.940;37.496;2023-01-28T02:00:15;6.03;;;1.42;;
69847;SDS011;57143;55.940;37.496;2023-01-28T02:02:44;5.07;;;1.23;;
69847;SDS011;57143;55.940;37.496;2023-01-28T02:05:13;4.77;;;1.03;;
69847;SDS011;57143;55.940;37.496;2023-01-28T02:07:42;4.75;;;1.05;;
69847;SDS011;57143;55.940;37.496;2023-01-28T02:10:12;6.40;;;1.48;;
69847;SDS011;57143;55.940;37.496;2023-01-28T02:12:41;4.97;;;1.08;;
69847;SDS011;57143;55.940;37.496;2023-01-28T02:15:13;4.55;;;0.90;;
69847;SDS011;57143;55.940;37.496;2023-01-28T02:17:45;5.33;;;1.27;;
69847;SDS011;57143;55.940;37.496;2023-01-28T02:20:13;4.57;;;1.20;;
69847;SDS011;57143;55.940;37.496;2023-01-28T02:29:01;7.30;;;1.60;;
69847;SDS011;57143;55.940;37.496;2023-01-28T02:31:37;6.17;;;1.77;;
69847;SDS011;57143;55.940;37.496;2023-01-28T02:34:15;5.63;;;1.30;;
69847;SDS011;57143;55.940;37.496;2023-01-28T02:36:48;3.53;;;0.85;;
69847;SDS011;57143;55.940;37.496;2023-01-28T02:39:21;7.07;;;2.95;;
69847;SDS011;57143;55.940;37.496;2023-01-28T02:41:52;4.93;;;0.98;;
69847;SDS011;57143;55.940;37.496;2023-01-28T02:44:24;7.30;;;1.53;;
69847;SDS011;57143;55.940;37.496;2023-01-28T02:46:51;7.05;;;1.33;;
69847;SDS011;57143;55.940;37.496;2023-01-28T02:49:38;5.32;;;1.15;;
69847;SDS011;57143;55.940;37.496;2023-01-28T02:52:15;4.00;;;0.70;;
69847;SDS011;57143;55.940;37.496;2023-01-28T02:55:13;4.10;;;0.90;;
69847;SDS011;57143;55.940;37.496;2023-01-28T02:57:48;4.70;;;0.87;;
69847;SDS011;57143;55.940;37.496;2023-01-28T03:00:26;4.53;;;0.88;;
69847;SDS011;57143;55.940;37.496;2023-01-28T03:03:04;5.50;;;0.75;;
69847;SDS011;57143;55.940;37.496;2023-01-28T03:05:37;3.75;;;0.70;;
69847;SDS011;57143;55.940;37.496;2023-01-28T03:08:22;4.03;;;0.80;;
69847;SDS011;57143;55.940;37.496;2023-01-28T03:11:08;3.83;;;0.67;;
69847;SDS011;57143;55.940;37.496;2023-01-28T03:13:52;4.78;;;0.65;;
69847;SDS011;57143;55.940;37.496;2023-01-28T03:16:38;4.15;;;0.63;;
69847;SDS011;57143;55.940;37.496;2023-01-28T03:19:23;4.30;;;0.63;;
69847;SDS011;57143;55.940;37.496;2023-01-28T03:22:07;4.25;;;0.80;;
69847;SDS011;57143;55.940;37.496;2023-01-28T03:24:51;3.67;;;0.60;;
69847;SDS011;57143;55.940;37.496;2023-01-28T03:27:38;4.05;;;0.60;;
69847;SDS011;57143;55.940;37.496;2023-01-28T03:30:31;3.85;;;0.70;;
69847;SDS011;57143;55.940;37.496;2023-01-28T03:33:21;4.78;;;0.65;;
69847;SDS011;57143;55.940;37.496;2023-01-28T03:36:08;3.58;;;0.68;;
69847;SDS011;57143;55.940;37.496;2023-01-28T03:38:53;3.37;;;0.57;;
69847;SDS011;57143;55.940;37.496;2023-01-28T03:41:21;3.40;;;0.63;;
69847;SDS011;57143;55.940;37.496;2023-01-28T03:43:50;3.83;;;0.77;;
69847;SDS011;57143;55.940;37.496;2023-01-28T03:46:17;4.07;;;0.73;;
69847;SDS011;57143;55.940;37.496;2023-01-28T03:48:45;4.82;;;0.73;;
69847;SDS011;57143;55.940;37.496;2023-01-28T03:51:12;4.77;;;0.83;;
69847;SDS011;57143;55.940;37.496;2023-01-28T03:53:40;4.63;;;0.90;;
69847;SDS011;57143;55.940;37.496;2023-01-28T03:56:07;5.55;;;1.10;;
69847;SDS011;57143;55.940;37.496;2023-01-28T03:58:42;5.43;;;1.20;;
69847;SDS011;57143;55.940;37.496;2023-01-28T04:01:17;3.90;;;0.77;;
69847;SDS011;57143;55.940;37.496;2023-01-28T04:03:46;4.43;;;0.70;;
69847;SDS011;57143;55.940;37.496;2023-01-28T04:06:13;5.30;;;0.80;;
69847;SDS011;57143;55.940;37.496;2023-01-28T04:08:41;4.22;;;1.10;;
69847;SDS011;57143;55.940;37.496;2023-01-28T04:11:13;4.57;;;0.80;;
69847;SDS011;57143;55.940;37.496;2023-01-28T04:13:44;4.20;;;0.77;;
69847;SDS011;57143;55.940;37.496;2023-01-28T04:16:12;5.07;;;0.80;;
69847;SDS011;57143;55.940;37.496;2023-01-28T04:18:41;4.10;;;0.90;;
69847;SDS011;57143;55.940;37.496;2023-01-28T04:21:09;3.15;;;0.60;;
69847;SDS011;57143;55.940;37.496;2023-01-28T04:23:37;4.30;;;0.90;;
69847;SDS011;57143;55.940;37.496;2023-01-28T04:26:04;4.90;;;1.08;;
69847;SDS011;57143;55.940;37.496;2023-01-28T04:28:31;3.73;;;0.80;;
69847;SDS011;57143;55.940;37.496;2023-01-28T04:30:58;3.95;;;0.80;;
69847;SDS011;57143;55.940;37.496;2023-01-28T04:33:25;5.10;;;0.90;;
69847;SDS011;57143;55.940;37.496;2023-01-28T04:35:53;4.57;;;1.00;;
69847;SDS011;57143;55.940;37.496;2023-01-28T04:38:21;4.20;;;0.80;;
69847;SDS011;57143;55.940;37.496;2023-01-28T04:40:49;4.03;;;0.77;;
69847;SDS011;57143;55.940;37.496;2023-01-28T04:43:16;4.35;;;0.73;;
69847;SDS011;57143;55.940;37.496;2023-01-28T04:45:44;4.28;;;0.70;;
69847;SDS011;57143;55.940;37.496;2023-01-28T04:48:12;5.20;;;1.10;;
69847;SDS011;57143;55.940;37.496;2023-01-28T04:50:39;3.95;;;0.70;;
69847;SDS011;57143;55.940;37.496;2023-01-28T04:53:07;3.80;;;0.70;;
69847;SDS011;57143;55.940;37.496;2023-01-28T04:55:35;4.97;;;0.77;;
69847;SDS011;57143;55.940;37.496;2023-01-28T04:58:02;6.25;;;1.15;;
69847;SDS011;57143;55.940;37.496;2023-01-28T05:00:30;5.18;;;1.00;;
69847;SDS011;57143;55.940;37.496;2023-01-28T05:02:57;4.55;;;0.90;;
69847;SDS011;57143;55.940;37.496;2023-01-28T05:05:24;3.73;;;0.63;;
69847;SDS011;57143;55.940;37.496;2023-01-28T05:07:51;4.90;;;0.93;;
69847;SDS011;57143;55.940;37.496;2023-01-28T05:10:19;5.68;;;1.10;;
69847;SDS011;57143;55.940;37.496;2023-01-28T05:12:48;5.82;;;1.48;;
69847;SDS011;57143;55.940;37.496;2023-01-28T05:15:15;6.30;;;1.00;;
69847;SDS011;57143;55.940;37.496;2023-01-28T05:17:43;5.73;;;1.00;;
69847;SDS011;57143;55.940;37.496;2023-01-28T05:20:11;6.28;;;1.30;;
69847;SDS011;57143;55.940;37.496;2023-01-28T05:22:39;4.78;;;0.80;;
69847;SDS011;57143;55.940;37.496;2023-01-28T05:25:08;4.93;;;0.90;;
69847;SDS011;57143;55.940;37.496;2023-01-28T05:27:36;6.20;;;1.13;;
69847;SDS011;57143;55.940;37.496;2023-01-28T05:30:05;5.33;;;1.07;;
69847;SDS011;57143;55.940;37.496;2023-01-28T05:32:33;6.75;;;1.23;;
69847;SDS011;57143;55.940;37.496;2023-01-28T05:35:00;6.05;;;1.25;;
69847;SDS011;57143;55.940;37.496;2023-01-28T05:37:28;5.18;;;1.10;;
69847;SDS011;57143;55.940;37.496;2023-01-28T05:39:55;5.82;;;1.00;;
69847;SDS011;57143;55.940;37.496;2023-01-28T05:42:22;5.20;;;1.10;;
69847;SDS011;57143;55.940;37.496;2023-01-28T05:44:49;6.55;;;1.38;;
69847;SDS011;57143;55.940;37.496;2023-01-28T05:47:18;6.47;;;1.30;;
69847;SDS011;57143;55.940;37.496;2023-01-28T05:49:45;6.68;;;1.17;;
69847;SDS011;57143;55.940;37.496;2023-01-28T05:52:12;7.93;;;1.33;;
69847;SDS011;57143;55.940;37.496;2023-01-28T05:54:39;5.87;;;1.33;;
69847;SDS011;57143;55.940;37.496;2023-01-28T05:57:06;6.35;;;1.38;;
69847;SDS011;57143;55.940;37.496;2023-01-28T05:59:33;5.90;;;1.08;;
69847;SDS011;57143;55.940;37.496;2023-01-28T06:02:00;5.07;;;1.08;;
69847;SDS011;57143;55.940;37.496;2023-01-28T06:04:29;4.43;;;1.08;;
69847;SDS011;57143;55.940;37.496;2023-01-28T06:06:56;5.47;;;1.47;;
69847;SDS011;57143;55.940;37.496;2023-01-28T06:09:23;7.43;;;1.83;;
69847;SDS011;57143;55.940;37.496;2023-01-28T06:11:50;5.97;;;1.42;;
69847;SDS011;57143;55.940;37.496;2023-01-28T06:14:17;6.50;;;1.48;;
69847;SDS011;57143;55.940;37.496;2023-01-28T06:16:44;8.38;;;1.90;;
69847;SDS011;57143;55.940;37.496;2023-01-28T06:19:12;7.90;;;1.83;;
69847;SDS011;57143;55.940;37.496;2023-01-28T06:21:40;6.93;;;1.70;;
69847;SDS011;57143;55.940;37.496;2023-01-28T06:24:08;7.22;;;1.60;;
69847;SDS011;57143;55.940;37.496;2023-01-28T06:26:35;8.50;;;1.88;;
69847;SDS011;57143;55.940;37.496;2023-01-28T06:29:02;7.10;;;1.63;;
69847;SDS011;57143;55.940;37.496;2023-01-28T06:31:29;6.27;;;1.90;;
69847;SDS011;57143;55.940;37.496;2023-01-28T06:33:56;8.60;;;2.40;;
69847;SDS011;57143;55.940;37.496;2023-01-28T06:36:23;9.25;;;2.38;;
69847;SDS011;57143;55.940;37.496;2023-01-28T06:38:53;8.05;;;2.50;;
69847;SDS011;57143;55.940;37.496;2023-01-28T06:41:20;7.75;;;2.05;;
69847;SDS011;57143;55.940;37.496;2023-01-28T06:43:47;13.00;;;2.97;;
69847;SDS011;57143;55.940;37.496;2023-01-28T06:46:14;7.43;;;2.30;;
69847;SDS011;57143;55.940;37.496;2023-01-28T06:48:41;8.48;;;2.70;;
69847;SDS011;57143;55.940;37.496;2023-01-28T06:51:08;7.80;;;2.58;;
69847;SDS011;57143;55.940;37.496;2023-01-28T06:53:35;8.93;;;3.00;;
69847;SDS011;57143;55.940;37.496;2023-01-28T06:56:04;9.70;;;3.43;;
69847;SDS011;57143;55.940;37.496;2023-01-28T06:58:32;9.68;;;2.90;;
69847;SDS011;57143;55.940;37.496;2023-01-28T07:01:00;10.20;;;3.33;;
69847;SDS011;57143;55.940;37.496;2023-01-28T07:03:28;7.25;;;2.10;;
69847;SDS011;57143;55.940;37.496;2023-01-28T07:05:55;9.70;;;3.20;;
69847;SDS011;57143;55.940;37.496;2023-01-28T07:08:22;12.17;;;2.63;;
69847;SDS011;57143;55.940;37.496;2023-01-28T07:10:49;10.68;;;3.50;;
69847;SDS011;57143;55.940;37.496;2023-01-28T07:13:18;10.07;;;2.55;;
69847;SDS011;57143;55.940;37.496;2023-01-28T07:15:45;10.43;;;3.63;;
69847;SDS011;57143;55.940;37.496;2023-01-28T07:18:13;14.25;;;4.40;;
69847;SDS011;57143;55.940;37.496;2023-01-28T07:20:40;12.17;;;3.10;;
69847;SDS011;57143;55.940;37.496;2023-01-28T07:23:07;8.85;;;3.08;;
69847;SDS011;57143;55.940;37.496;2023-01-28T07:25:34;15.35;;;4.20;;
69847;SDS011;57143;55.940;37.496;2023-01-28T07:28:01;15.70;;;5.20;;
69847;SDS011;57143;55.940;37.496;2023-01-28T07:30:30;14.13;;;4.57;;
69847;SDS011;57143;55.940;37.496;2023-01-28T07:32:57;13.40;;;4.77;;
69847;SDS011;57143;55.940;37.496;2023-01-28T07:35:25;15.02;;;4.93;;
69847;SDS011;57143;55.940;37.496;2023-01-28T07:37:52;9.32;;;3.38;;
69847;SDS011;57143;55.940;37.496;2023-01-28T07:40:20;13.55;;;5.05;;
69847;SDS011;57143;55.940;37.496;2023-01-28T07:42:47;10.52;;;3.78;;
69847;SDS011;57143;55.940;37.496;2023-01-28T07:45:15;11.23;;;3.63;;
69847;SDS011;57143;55.940;37.496;2023-01-28T07:47:43;11.02;;;3.88;;
69847;SDS011;57143;55.940;37.496;2023-01-28T07:50:11;7.85;;;2.67;;
69847;SDS011;57143;55.940;37.496;2023-01-28T07:52:38;12.70;;;4.75;;
69847;SDS011;57143;55.940;37.496;2023-01-28T07:55:09;13.90;;;3.80;;
69847;SDS011;57143;55.940;37.496;2023-01-28T07:57:46;16.13;;;5.17;;
69847;SDS011;57143;55.940;37.496;2023-01-28T08:00:14;12.35;;;4.20;;
69847;SDS011;57143;55.940;37.496;2023-01-28T08:02:43;15.10;;;5.13;;
69847;SDS011;57143;55.940;37.496;2023-01-28T08:05:13;15.85;;;3.88;;
69847;SDS011;57143;55.940;37.496;2023-01-28T08:07:42;14.18;;;4.72;;
69847;SDS011;57143;55.940;37.496;2023-01-28T08:10:09;18.17;;;6.87;;
69847;SDS011;57143;55.940;37.496;2023-01-28T08:12:38;16.00;;;3.85;;
69847;SDS011;57143;55.940;37.496;2023-01-28T08:15:06;11.60;;;4.15;;
69847;SDS011;57143;55.940;37.496;2023-01-28T08:17:34;12.57;;;3.75;;
69847;SDS011;57143;55.940;37.496;2023-01-28T08:20:03;15.65;;;5.32;;
69847;SDS011;57143;55.940;37.496;2023-01-28T08:22:31;14.73;;;4.40;;
69847;SDS011;57143;55.940;37.496;2023-01-28T08:24:58;13.55;;;4.32;;
69847;SDS011;57143;55.940;37.496;2023-01-28T08:27:25;13.95;;;3.83;;
69847;SDS011;57143;55.940;37.496;2023-01-28T08:29:53;12.93;;;4.25;;
69847;SDS011;57143;55.940;37.496;2023-01-28T08:32:20;10.25;;;3.75;;
69847;SDS011;57143;55.940;37.496;2023-01-28T08:34:47;13.43;;;4.60;;
69847;SDS011;57143;55.940;37.496;2023-01-28T08:37:16;6.22;;;1.95;;
69847;SDS011;57143;55.940;37.496;2023-01-28T08:39:45;10.98;;;3.90;;
69847;SDS011;57143;55.940;37.496;2023-01-28T08:42:12;11.65;;;3.72;;
69847;SDS011;57143;55.940;37.496;2023-01-28T08:44:39;13.18;;;4.43;;
69847;SDS011;57143;55.940;37.496;2023-01-28T08:47:06;17.37;;;5.80;;
69847;SDS011;57143;55.940;37.496;2023-01-28T08:49:33;14.93;;;5.20;;
69847;SDS011;57143;55.940;37.496;2023-01-28T08:52:00;13.32;;;4.35;;
69847;SDS011;57143;55.940;37.496;2023-01-28T08:54:29;12.73;;;3.83;;
69847;SDS011;57143;55.940;37.496;2023-01-28T08:56:56;11.80;;;4.88;;
69847;SDS011;57143;55.940;37.496;2023-01-28T08:59:23;14.73;;;5.03;;
69847;SDS011;57143;55.940;37.496;2023-01-28T09:01:50;15.25;;;5.05;;
69847;SDS011;57143;55.940;37.496;2023-01-28T09:04:18;13.57;;;4.72;;
69847;SDS011;57143;55.940;37.496;2023-01-28T09:06:45;14.65;;;5.22;;
69847;SDS011;57143;55.940;37.496;2023-01-28T09:09:12;15.15;;;5.05;;
69847;SDS011;57143;55.940;37.496;2023-01-28T09:11:40;15.17;;;4.83;;
69847;SDS011;57143;55.940;37.496;2023-01-28T09:14:07;18.13;;;4.60;;
69847;SDS011;57143;55.940;37.496;2023-01-28T09:16:35;15.45;;;5.28;;
69847;SDS011;57143;55.940;37.496;2023-01-28T09:19:02;15.73;;;6.15;;
69847;SDS011;57143;55.940;37.496;2023-01-28T09:21:29;14.30;;;4.57;;
69847;SDS011;57143;55.940;37.496;2023-01-28T09:23:56;16.17;;;4.83;;
69847;SDS011;57143;55.940;37.496;2023-01-28T09:26:23;12.82;;;4.50;;
69847;SDS011;57143;55.940;37.496;2023-01-28T09:28:52;16.20;;;5.82;;
69847;SDS011;57143;55.940;37.496;2023-01-28T09:31:20;12.82;;;4.68;;
69847;SDS011;57143;55.940;37.496;2023-01-28T09:33:47;18.67;;;5.25;;
69847;SDS011;57143;55.940;37.496;2023-01-28T09:36:20;21.50;;;6.23;;
69847;SDS011;57143;55.940;37.496;2023-01-28T09:38:48;16.33;;;5.93;;
69847;SDS011;57143;55.940;37.496;2023-01-28T09:41:22;14.50;;;4.32;;
69847;SDS011;57143;55.940;37.496;2023-01-28T09:46:46;16.38;;;4.75;;
69847;SDS011;57143;55.940;37.496;2023-01-28T09:49:16;20.33;;;5.83;;
69847;SDS011;57143;55.940;37.496;2023-01-28T09:51:48;17.42;;;5.47;;
69847;SDS011;57143;55.940;37.496;2023-01-28T09:54:26;15.35;;;4.38;;
69847;SDS011;57143;55.940;37.496;2023-01-28T09:57:00;17.90;;;4.95;;
69847;SDS011;57143;55.940;37.496;2023-01-28T09:59:33;13.38;;;4.25;;
69847;SDS011;57143;55.940;37.496;2023-01-28T10:02:10;10.87;;;3.70;;
69847;SDS011;57143;55.940;37.496;2023-01-28T10:04:55;13.35;;;4.38;;
69847;SDS011;57143;55.940;37.496;2023-01-28T10:07:33;14.68;;;4.40;;
69847;SDS011;57143;55.940;37.496;2023-01-28T10:10:08;17.08;;;6.10;;
69847;SDS011;57143;55.940;37.496;2023-01-28T10:12:46;18.52;;;5.95;;
69847;SDS011;57143;55.940;37.496;2023-01-28T10:15:29;18.67;;;6.67;;
69847;SDS011;57143;55.940;37.496;2023-01-28T10:18:12;15.98;;;4.55;;
69847;SDS011;57143;55.940;37.496;2023-01-28T10:20:40;17.23;;;5.55;;
69847;SDS011;57143;55.940;37.496;2023-01-28T10:23:11;13.55;;;4.70;;
69847;SDS011;57143;55.940;37.496;2023-01-28T10:25:43;17.27;;;4.30;;
69847;SDS011;57143;55.940;37.496;2023-01-28T10:28:17;12.60;;;4.37;;
69847;SDS011;57143;55.940;37.496;2023-01-28T10:30:48;14.05;;;5.13;;
69847;SDS011;57143;55.940;37.496;2023-01-28T10:33:18;15.57;;;4.43;;
69847;SDS011;57143;55.940;37.496;2023-01-28T10:35:49;17.80;;;5.13;;
69847;SDS011;57143;55.940;37.496;2023-01-28T10:38:22;13.43;;;4.55;;
69847;SDS011;57143;55.940;37.496;2023-01-28T10:40:51;14.57;;;4.50;;
69847;SDS011;57143;55.940;37.496;2023-01-28T10:43:22;13.50;;;4.35;;
69847;SDS011;57143;55.940;37.496;2023-01-28T10:45:54;15.48;;;5.35;;
69847;SDS011;57143;55.940;37.496;2023-01-28T10:48:25;10.88;;;4.45;;
69847;SDS011;57143;55.940;37.496;2023-01-28T10:50:55;15.90;;;5.53;;
69847;SDS011;57143;55.940;37.496;2023-01-28T10:53:32;12.87;;;4.63;;
69847;SDS011;57143;55.940;37.496;2023-01-28T10:56:01;12.63;;;4.90;;
69847;SDS011;57143;55.940;37.496;2023-01-28T10:58:30;14.80;;;5.75;;
69847;SDS011;57143;55.940;37.496;2023-01-28T11:01:04;15.27;;;4.80;;
69847;SDS011;57143;55.940;37.496;2023-01-28T11:03:32;17.10;;;6.43;;
69847;SDS011;57143;55.940;37.496;2023-01-28T11:06:00;13.47;;;4.87;;
69847;SDS011;57143;55.940;37.496;2023-01-28T11:08:28;17.23;;;5.57;;
69847;SDS011;57143;55.940;37.496;2023-01-28T11:10:57;17.33;;;6.15;;
69847;SDS011;57143;55.940;37.496;2023-01-28T11:13:25;19.25;;;6.43;;
69847;SDS011;57143;55.940;37.496;2023-01-28T11:15:54;23.80;;;7.70;;
69847;SDS011;57143;55.940;37.496;2023-01-28T11:18:28;17.47;;;5.50;;
69847;SDS011;57143;55.940;37.496;2023-01-28T11:20:59;15.27;;;5.53;;
69847;SDS011;57143;55.940;37.496;2023-01-28T11:23:28;21.38;;;6.63;;
69847;SDS011;57143;55.940;37.496;2023-01-28T11:25:59;28.55;;;9.82;;
69847;SDS011;57143;55.940;37.496;2023-01-28T11:28:30;27.02;;;9.48;;
69847;SDS011;57143;55.940;37.496;2023-01-28T11:30:59;16.47;;;6.70;;
69847;SDS011;57143;55.940;37.496;2023-01-28T11:33:31;16.15;;;6.18;;
69847;SDS011;57143;55.940;37.496;2023-01-28T11:36:05;14.43;;;5.60;;
69847;SDS011;57143;55.940;37.496;2023-01-28T11:38:34;13.48;;;5.55;;
69847;SDS011;57143;55.940;37.496;2023-01-28T11:41:01;15.75;;;4.95;;
69847;SDS011;57143;55.940;37.496;2023-01-28T11:43:30;15.13;;;5.00;;
69847;SDS011;57143;55.940;37.496;2023-01-28T11:46:00;12.02;;;4.90;;
69847;SDS011;57143;55.940;37.496;2023-01-28T11:48:47;13.68;;;5.35;;
69847;SDS011;57143;55.940;37.496;2023-01-28T11:51:28;15.23;;;5.38;;
69847;SDS011;57143;55.940;37.496;2023-01-28T11:54:17;15.40;;;5.72;;
69847;SDS011;57143;55.940;37.496;2023-01-28T11:57:10;22.60;;;8.23;;
69847;SDS011;57143;55.940;37.496;2023-01-28T12:02:46;18.80;;;6.57;;
69847;SDS011;57143;55.940;37.496;2023-01-28T12:05:32;12.35;;;5.00;;
69847;SDS011;57143;55.940;37.496;2023-01-28T12:08:15;13.38;;;5.20;;
69847;SDS011;57143;55.940;37.496;2023-01-28T12:10:51;14.73;;;5.23;;
69847;SDS011;57143;55.940;37.496;2023-01-28T12:13:40;12.82;;;4.60;;
69847;SDS011;57143;55.940;37.496;2023-01-28T12:16:22;20.75;;;6.38;;
69847;SDS011;57143;55.940;37.496;2023-01-28T12:19:08;17.63;;;5.72;;
69847;SDS011;57143;55.940;37.496;2023-01-28T12:21:50;14.45;;;5.05;;
69847;SDS011;57143;55.940;37.496;2023-01-28T12:24:46;16.23;;;4.90;;
69847;SDS011;57143;55.940;37.496;2023-01-28T12:27:32;20.88;;;7.07;;
69847;SDS011;57143;55.940;37.496;2023-01-28T12:30:09;18.42;;;6.40;;
69847;SDS011;57143;55.940;37.496;2023-01-28T12:32:50;23.17;;;7.13;;
69847;SDS011;57143;55.940;37.496;2023-01-28T12:35:38;28.90;;;8.95;;
69847;SDS011;57143;55.940;37.496;2023-01-28T12:38:18;29.20;;;9.47;;
69847;SDS011;57143;55.940;37.496;2023-01-28T12:40:57;17.80;;;6.35;;
69847;SDS011;57143;55.940;37.496;2023-01-28T12:43:40;26.60;;;8.82;;
69847;SDS011;57143;55.940;37.496;2023-01-28T12:46:16;19.30;;;8.07;;
69847;SDS011;57143;55.940;37.496;2023-01-28T12:48:50;14.45;;;4.93;;
69847;SDS011;57143;55.940;37.496;2023-01-28T12:51:24;16.20;;;5.40;;
69847;SDS011;57143;55.940;37.496;2023-01-28T12:53:59;18.38;;;7.10;;
69847;SDS011;57143;55.940;37.496;2023-01-28T12:56:32;18.50;;;6.50;;
69847;SDS011;57143;55.940;37.496;2023-01-28T12:59:03;21.98;;;8.27;;
69847;SDS011;57143;55.940;37.496;2023-01-28T13:01:38;20.48;;;6.80;;
69847;SDS011;57143;55.940;37.496;2023-01-28T13:04:08;19.70;;;5.90;;
69847;SDS011;57143;55.940;37.496;2023-01-28T13:06:43;16.50;;;5.47;;
69847;SDS011;57143;55.940;37.496;2023-01-28T13:09:19;19.83;;;5.88;;
69847;SDS011;57143;55.940;37.496;2023-01-28T13:11:50;17.75;;;6.75;;
69847;SDS011;57143;55.940;37.496;2023-01-28T13:14:21;17.35;;;5.47;;
69847;SDS011;57143;55.940;37.496;2023-01-28T13:16:51;20.67;;;7.03;;
69847;SDS011;57143;55.940;37.496;2023-01-28T13:19:22;22.20;;;7.25;;
69847;SDS011;57143;55.940;37.496;2023-01-28T13:21:51;13.80;;;4.82;;
69847;SDS011;57143;55.940;37.496;2023-01-28T13:24:29;13.20;;;4.72;;
69847;SDS011;57143;55.940;37.496;2023-01-28T13:27:09;18.90;;;5.47;;
69847;SDS011;57143;55.940;37.496;2023-01-28T13:29:38;16.33;;;6.07;;
69847;SDS011;57143;55.940;37.496;2023-01-28T13:34:56;12.23;;;4.72;;
69847;SDS011;57143;55.940;37.496;2023-01-28T13:37:27;16.70;;;5.15;;
69847;SDS011;57143;55.940;37.496;2023-01-28T13:40:00;18.05;;;5.57;;
69847;SDS011;57143;55.940;37.496;2023-01-28T13:42:31;13.30;;;4.83;;
69847;SDS011;57143;55.940;37.496;2023-01-28T13:47:46;13.55;;;4.63;;
69847;SDS011;57143;55.940;37.496;2023-01-28T13:50:17;18.55;;;6.35;;
69847;SDS011;57143;55.940;37.496;2023-01-28T13:52:48;19.20;;;6.25;;
69847;SDS011;57143;55.940;37.496;2023-01-28T13:55:23;15.27;;;5.57;;
69847;SDS011;57143;55.940;37.496;2023-01-28T14:07:33;15.52;;;4.40;;
69847;SDS011;57143;55.940;37.496;2023-01-28T14:10:25;13.23;;;4.80;;
69847;SDS011;57143;55.940;37.496;2023-01-28T14:16:04;21.75;;;9.02;;
69847;SDS011;57143;55.940;37.496;2023-01-28T14:18:42;19.70;;;7.72;;
69847;SDS011;57143;55.940;37.496;2023-01-28T14:21:11;24.83;;;7.28;;
69847;SDS011;57143;55.940;37.496;2023-01-28T14:23:43;19.00;;;6.43;;
69847;SDS011;57143;55.940;37.496;2023-01-28T14:29:13;15.05;;;5.10;;
69847;SDS011;57143;55.940;37.496;2023-01-28T14:31:46;24.33;;;9.02;;
69847;SDS011;57143;55.940;37.496;2023-01-28T14:34:16;18.25;;;6.93;;
69847;SDS011;57143;55.940;37.496;2023-01-28T14:36:49;23.13;;;7.93;;
69847;SDS011;57143;55.940;37.496;2023-01-28T14:39:20;24.65;;;8.90;;
69847;SDS011;57143;55.940;37.496;2023-01-28T14:41:52;17.63;;;6.55;;
69847;SDS011;57143;55.940;37.496;2023-01-28T14:44:23;20.45;;;7.28;;
69847;SDS011;57143;55.940;37.496;2023-01-28T14:46:58;19.27;;;6.47;;
69847;SDS011;57143;55.940;37.496;2023-01-28T14:49:44;15.67;;;6.23;;
69847;SDS011;57143;55.940;37.496;2023-01-28T14:52:27;15.38;;;6.22;;
69847;SDS011;57143;55.940;37.496;2023-01-28T14:55:08;18.00;;;6.03;;
69847;SDS011;57143;55.940;37.496;2023-01-28T14:57:50;13.88;;;5.05;;
69847;SDS011;57143;55.940;37.496;2023-01-28T15:00:21;18.38;;;6.30;;
69847;SDS011;57143;55.940;37.496;2023-01-28T15:02:50;27.53;;;9.27;;
69847;SDS011;57143;55.940;37.496;2023-01-28T15:05:20;29.58;;;8.95;;
69847;SDS011;57143;55.940;37.496;2023-01-28T15:07:48;16.83;;;6.95;;
69847;SDS011;57143;55.940;37.496;2023-01-28T15:10:18;14.30;;;5.18;;
69847;SDS011;57143;55.940;37.496;2023-01-28T15:12:48;15.50;;;5.82;;
69847;SDS011;57143;55.940;37.496;2023-01-28T15:15:23;15.27;;;5.97;;
69847;SDS011;57143;55.940;37.496;2023-01-28T15:17:56;15.05;;;6.07;;
69847;SDS011;57143;55.940;37.496;2023-01-28T15:20:27;18.85;;;6.22;;
69847;SDS011;57143;55.940;37.496;2023-01-28T15:22:55;22.90;;;8.23;;
69847;SDS011;57143;55.940;37.496;2023-01-28T15:25:23;16.75;;;6.88;;